createdAt,value
2018-08-24T00:01:11.401Z,19.62
2018-08-24T00:03:39.691Z,19.58
2018-08-24T00:06:07.686Z,19.62
2018-08-24T00:08:35.480Z,19.54
2018-08-24T00:11:03.365Z,19.50
2018-08-24T00:13:31.515Z,19.47
2018-08-24T00:15:59.385Z,19.48
2018-08-24T00:18:27.307Z,19.42
2018-08-24T00:20:55.182Z,19.40
2018-08-24T00:23:23.176Z,19.38
2018-08-24T00:25:50.975Z,19.42
2018-08-24T00:28:18.887Z,19.45
2018-08-24T00:30:46.770Z,19.57
2018-08-24T00:33:14.715Z,19.51
2018-08-24T00:35:43.257Z,19.44
2018-08-24T00:38:11.120Z,19.42
2018-08-24T00:40:38.971Z,19.33
2018-08-24T00:43:07.870Z,19.35
2018-08-24T00:45:35.758Z,19.31
2018-08-24T00:48:03.607Z,19.29
2018-08-24T00:50:31.522Z,19.23
2018-08-24T00:52:59.384Z,19.19
2018-08-24T00:55:27.280Z,19.23
2018-08-24T00:57:55.206Z,19.22
2018-08-24T01:00:27.577Z,19.23
2018-08-24T01:02:55.521Z,19.27
2018-08-24T01:05:23.636Z,19.37
2018-08-24T01:07:57.063Z,19.39
2018-08-24T01:10:25.788Z,19.44
2018-08-24T01:12:54.389Z,19.47
2018-08-24T01:15:22.304Z,19.43
2018-08-24T01:17:55.655Z,19.49
2018-08-24T01:20:28.135Z,19.41
2018-08-24T01:22:56.076Z,19.39
2018-08-24T01:25:23.905Z,19.44
2018-08-24T01:27:51.750Z,19.45
2018-08-24T01:30:19.704Z,19.45
2018-08-24T01:32:47.669Z,19.48
2018-08-24T01:35:15.579Z,19.52
2018-08-24T01:37:43.585Z,19.48
2018-08-24T01:40:11.497Z,19.55
2018-08-24T01:42:39.328Z,19.63
2018-08-24T01:45:07.261Z,19.66
2018-08-24T01:47:35.200Z,19.66
2018-08-24T01:50:03.080Z,19.62
2018-08-24T01:52:30.984Z,19.63
2018-08-24T01:54:58.982Z,19.63
2018-08-24T01:57:27.012Z,19.59
2018-08-24T01:59:54.765Z,19.55
2018-08-24T02:02:23.119Z,19.49
2018-08-24T02:04:51.067Z,19.50
2018-08-24T02:07:18.923Z,19.39
2018-08-24T02:09:46.891Z,19.29
2018-08-24T02:12:20.085Z,19.16
2018-08-24T02:14:47.997Z,19.15
2018-08-24T02:17:21.402Z,19.11
2018-08-24T02:19:54.978Z,19.08
2018-08-24T02:22:22.941Z,19.04
2018-08-24T02:24:50.822Z,19.05
2018-08-24T02:27:19.024Z,19.06
2018-08-24T02:29:47.019Z,18.99
2018-08-24T02:32:14.829Z,19.03
2018-08-24T02:34:42.685Z,19.04
2018-08-24T02:37:10.516Z,19.06
2018-08-24T02:39:38.635Z,19.05
2018-08-24T02:42:06.512Z,18.94
2018-08-24T02:44:34.379Z,18.94
2018-08-24T02:47:02.422Z,18.88
2018-08-24T02:49:30.254Z,18.97
2018-08-24T02:51:58.107Z,18.91
2018-08-24T02:54:26.040Z,18.90
2018-08-24T02:56:53.872Z,18.85
2018-08-24T02:59:21.764Z,18.88
2018-08-24T03:01:49.640Z,18.82
2018-08-24T03:04:17.609Z,18.73
2018-08-24T03:06:45.483Z,18.73
2018-08-24T03:09:13.776Z,18.71
2018-08-24T03:11:41.662Z,18.73
2018-08-24T03:14:09.604Z,18.66
2018-08-24T03:16:37.477Z,18.52
2018-08-24T03:19:05.330Z,18.52
2018-08-24T03:21:33.224Z,18.49
2018-08-24T03:24:01.049Z,18.45
2018-08-24T03:26:28.947Z,18.45
2018-08-24T03:28:56.879Z,18.50
2018-08-24T03:31:24.866Z,18.49
2018-08-24T03:33:52.673Z,18.41
2018-08-24T03:36:20.550Z,18.40
2018-08-24T03:38:48.464Z,18.24
2018-08-24T03:41:16.536Z,18.09
2018-08-24T03:43:44.407Z,18.01
2018-08-24T03:46:12.327Z,17.96
2018-08-24T03:48:40.124Z,17.75
2018-08-24T03:51:08.036Z,17.73
2018-08-24T03:53:35.866Z,17.72
2018-08-24T03:56:03.870Z,17.69
2018-08-24T03:58:31.755Z,17.58
2018-08-24T04:00:59.762Z,17.47
2018-08-24T04:03:28.793Z,17.47
2018-08-24T04:05:56.710Z,17.48
2018-08-24T04:08:24.588Z,17.41
2018-08-24T04:10:52.521Z,17.32
2018-08-24T04:13:20.349Z,17.32
2018-08-24T04:15:48.253Z,17.28
2018-08-24T04:18:16.229Z,17.28
2018-08-24T04:20:44.508Z,17.20
2018-08-24T04:23:12.442Z,17.09
2018-08-24T04:25:40.345Z,17.14
2018-08-24T04:28:08.178Z,17.09
2018-08-24T04:30:36.209Z,17.02
2018-08-24T04:33:04.018Z,17.01
2018-08-24T04:35:32.041Z,17.01
2018-08-24T04:37:59.863Z,16.99
2018-08-24T04:40:28.246Z,17.09
2018-08-24T04:42:55.982Z,16.99
2018-08-24T04:45:23.802Z,17.10
2018-08-24T04:47:51.795Z,17.20
2018-08-24T04:50:19.745Z,17.22
2018-08-24T04:52:47.660Z,17.32
2018-08-24T04:55:15.577Z,17.35
2018-08-24T04:57:43.554Z,17.38
2018-08-24T05:00:11.735Z,17.33
2018-08-24T05:02:39.910Z,17.40
2018-08-24T05:05:08.773Z,17.49
2018-08-24T05:07:36.712Z,17.52
2018-08-24T05:10:04.902Z,17.55
2018-08-24T05:12:32.892Z,17.58
2018-08-24T05:15:01.103Z,17.71
2018-08-24T05:17:29.533Z,17.80
2018-08-24T05:19:57.568Z,17.93
2018-08-24T05:22:25.832Z,18.02
2018-08-24T05:24:54.169Z,18.13
2018-08-24T05:27:22.165Z,18.35
2018-08-24T05:29:50.228Z,18.46
2018-08-24T05:32:18.237Z,18.68
2018-08-24T05:34:46.524Z,18.80
2018-08-24T05:37:14.654Z,19.13
2018-08-24T05:39:42.815Z,19.62
2018-08-24T05:42:11.294Z,19.69
2018-08-24T05:44:39.502Z,19.48
2018-08-24T05:47:07.681Z,19.14
2018-08-24T05:52:03.047Z,18.53
2018-08-24T05:54:31.258Z,18.46
2018-08-24T05:56:59.351Z,18.35
2018-08-24T05:59:27.305Z,18.33
2018-08-24T06:01:56.341Z,18.09
2018-08-24T06:04:24.689Z,18.06
2018-08-24T06:06:54.125Z,18.03
2018-08-24T06:09:22.466Z,17.70
2018-08-24T06:11:50.589Z,17.65
2018-08-24T06:14:18.665Z,17.65
2018-08-24T06:16:52.391Z,17.64
2018-08-24T06:19:21.502Z,17.72
2018-08-24T06:21:51.152Z,17.74
2018-08-24T06:24:19.398Z,17.87
2018-08-24T06:26:47.848Z,17.97
2018-08-24T06:29:16.186Z,17.98
2018-08-24T06:31:44.547Z,18.04
2018-08-24T06:34:13.037Z,18.26
2018-08-24T06:36:41.197Z,18.40
2018-08-24T06:39:11.553Z,18.59
2018-08-24T06:41:40.164Z,18.73
2018-08-24T06:44:08.335Z,19.09
2018-08-24T06:46:37.884Z,19.05
2018-08-24T06:49:11.387Z,18.89
2018-08-24T06:51:39.754Z,18.87
2018-08-24T06:54:07.889Z,18.92
2018-08-24T06:56:36.055Z,18.71
2018-08-24T06:59:04.441Z,18.69
2018-08-24T07:01:32.611Z,18.75
2018-08-24T07:04:01.109Z,18.64
2018-08-24T07:06:29.335Z,18.71
2018-08-24T07:08:57.662Z,18.57
2018-08-24T07:11:25.731Z,18.76
2018-08-24T07:13:54.089Z,18.64
2018-08-24T07:16:22.223Z,18.88
2018-08-24T07:18:50.350Z,18.97
2018-08-24T07:21:18.422Z,19.34
2018-08-24T07:23:46.602Z,19.62
2018-08-24T07:26:15.131Z,19.55
2018-08-24T07:28:43.336Z,19.69
2018-08-24T07:31:11.686Z,19.50
2018-08-24T07:33:39.597Z,19.36
2018-08-24T07:36:07.793Z,19.66
2018-08-24T07:38:35.961Z,19.84
2018-08-24T07:41:04.378Z,19.60
2018-08-24T07:43:32.573Z,19.35
2018-08-24T07:46:00.736Z,19.42
2018-08-24T07:48:28.858Z,18.94
2018-08-24T07:50:57.221Z,18.94
2018-08-24T07:53:25.405Z,19.09
2018-08-24T07:55:53.818Z,18.90
2018-08-24T07:58:22.069Z,18.90
2018-08-24T08:00:50.458Z,19.10
2018-08-24T08:03:18.594Z,19.11
2018-08-24T08:05:46.777Z,19.25
2018-08-24T08:08:14.876Z,19.52
2018-08-24T08:10:42.937Z,19.97
2018-08-24T08:13:11.879Z,20.16
2018-08-24T08:15:40.303Z,20.43
2018-08-24T08:18:08.543Z,20.28
2018-08-24T08:20:36.638Z,20.22
2018-08-24T08:23:04.906Z,19.59
2018-08-24T08:25:33.063Z,19.29
2018-08-24T08:28:01.121Z,19.44
2018-08-24T08:30:29.332Z,19.91
2018-08-24T08:32:57.412Z,19.91
2018-08-24T08:35:25.715Z,20.23
2018-08-24T08:37:53.776Z,20.07
2018-08-24T08:40:21.976Z,20.00
2018-08-24T08:42:50.171Z,19.83
2018-08-24T08:45:18.483Z,19.54
2018-08-24T08:47:46.527Z,19.50
2018-08-24T08:50:14.480Z,19.37
2018-08-24T08:52:42.754Z,19.24
2018-08-24T08:55:10.929Z,19.05
2018-08-24T08:57:39.281Z,19.06
2018-08-24T09:00:07.650Z,19.03
2018-08-24T09:02:35.800Z,19.12
2018-08-24T09:05:04.145Z,19.06
2018-08-24T09:07:32.069Z,18.92
2018-08-24T09:10:00.157Z,18.96
2018-08-24T09:12:28.264Z,18.79
2018-08-24T09:14:56.473Z,18.72
2018-08-24T09:17:30.132Z,18.78
2018-08-24T09:20:03.572Z,18.80
2018-08-24T09:22:37.129Z,18.77
2018-08-24T09:25:10.775Z,18.67
2018-08-24T09:28:41.979Z,18.77
2018-08-24T09:31:15.648Z,18.87
2018-08-24T09:33:43.925Z,18.80
2018-08-24T09:36:17.506Z,18.81
2018-08-24T09:38:45.612Z,18.73
2018-08-24T09:41:13.820Z,18.85
2018-08-24T09:43:47.598Z,19.21
2018-08-24T09:46:15.766Z,19.62
2018-08-24T09:48:49.440Z,20.04
2018-08-24T09:51:22.944Z,20.32
2018-08-24T09:53:56.658Z,20.53
2018-08-24T09:56:25.141Z,20.93
2018-08-24T09:58:53.267Z,21.19
2018-08-24T10:01:26.988Z,21.55
2018-08-24T10:05:04.196Z,21.91
2018-08-24T10:07:33.783Z,21.92
2018-08-24T10:10:02.616Z,21.78
2018-08-24T10:12:34.940Z,21.67
2018-08-24T10:15:03.493Z,21.58
2018-08-24T10:17:34.205Z,21.15
2018-08-24T10:20:02.458Z,21.38
2018-08-24T10:22:31.260Z,21.84
2018-08-24T10:24:59.724Z,21.90
2018-08-24T10:27:29.135Z,22.25
2018-08-24T10:29:57.293Z,22.52
2018-08-24T10:32:25.536Z,22.79
2018-08-24T10:34:54.300Z,22.37
2018-08-24T10:37:22.515Z,22.28
2018-08-24T10:39:50.738Z,22.15
2018-08-24T10:42:18.958Z,22.06
2018-08-24T10:44:47.118Z,22.49
2018-08-24T10:47:15.269Z,22.32
2018-08-24T10:49:43.572Z,22.10
2018-08-24T10:52:11.695Z,22.21
2018-08-24T10:54:39.934Z,21.89
2018-08-24T10:57:08.087Z,21.61
2018-08-24T10:59:36.114Z,21.42
2018-08-24T11:02:04.332Z,22.12
2018-08-24T11:04:32.404Z,22.46
2018-08-24T11:07:00.510Z,21.86
2018-08-24T11:09:28.585Z,23.38
2018-08-24T11:11:56.830Z,24.54
2018-08-24T11:14:25.009Z,25.01
2018-08-24T11:16:53.291Z,25.08
2018-08-24T11:19:21.484Z,23.17
2018-08-24T11:21:49.823Z,23.38
2018-08-24T11:24:18.012Z,23.86
2018-08-24T11:26:46.189Z,24.17
2018-08-24T11:29:14.437Z,24.98
2018-08-24T11:31:42.749Z,24.18
2018-08-24T11:34:10.867Z,23.50
2018-08-24T11:36:38.975Z,23.40
2018-08-24T11:39:07.788Z,23.60
2018-08-24T11:41:35.985Z,23.36
2018-08-24T11:44:04.242Z,23.29
2018-08-24T11:46:32.820Z,23.36
2018-08-24T11:49:01.062Z,22.67
2018-08-24T11:51:29.212Z,22.65
2018-08-24T11:53:57.367Z,22.42
2018-08-24T11:56:25.528Z,22.41
2018-08-24T11:58:53.608Z,22.36
2018-08-24T12:01:21.928Z,22.26
2018-08-24T12:03:50.028Z,22.68
2018-08-24T12:06:18.294Z,22.87
2018-08-24T12:08:46.492Z,23.10
2018-08-24T12:11:14.558Z,23.46
2018-08-24T12:13:42.780Z,23.21
2018-08-24T12:16:10.925Z,23.21
2018-08-24T12:18:39.178Z,23.38
2018-08-24T12:21:07.328Z,23.24
2018-08-24T12:23:35.643Z,22.88
2018-08-24T12:26:03.713Z,22.67
2018-08-24T12:28:31.935Z,22.20
2018-08-24T12:31:00.064Z,22.53
2018-08-24T12:33:28.341Z,22.52
2018-08-24T12:35:56.560Z,22.43
2018-08-24T12:38:25.771Z,22.63
2018-08-24T12:40:54.149Z,22.75
2018-08-24T12:43:22.560Z,23.00
2018-08-24T12:45:50.968Z,23.30
2018-08-24T12:48:19.086Z,23.22
2018-08-24T12:50:47.436Z,23.31
2018-08-24T12:53:15.554Z,23.10
2018-08-24T12:56:00.543Z,22.16
2018-08-24T12:58:29.743Z,21.90
2018-08-24T13:00:58.797Z,22.01
2018-08-24T13:03:34.947Z,21.87
2018-08-24T13:06:03.428Z,21.54
2018-08-24T13:08:33.665Z,21.79
2018-08-24T13:11:02.373Z,21.89
2018-08-24T13:13:49.073Z,21.75
2018-08-24T13:16:25.272Z,21.58
2018-08-24T13:18:54.026Z,21.32
2018-08-24T13:21:22.591Z,21.72
2018-08-24T13:23:51.171Z,21.97
2018-08-24T13:26:19.415Z,22.33
2018-08-24T13:31:45.841Z,21.84
2018-08-24T13:34:15.200Z,21.59
2018-08-24T13:36:44.200Z,21.58
2018-08-24T13:39:13.052Z,21.44
2018-08-24T13:44:17.804Z,21.67
2018-08-24T13:47:35.375Z,21.78
2018-08-24T13:50:10.457Z,21.78
2018-08-24T13:52:54.592Z,21.86
2018-08-24T13:55:24.298Z,22.16
2018-08-24T13:57:53.799Z,22.11
2018-08-24T14:01:52.574Z,21.97
2018-08-24T14:04:22.061Z,21.73
2018-08-24T14:06:50.606Z,21.64
2018-08-24T14:09:19.163Z,21.75
2018-08-24T14:14:40.326Z,21.76
2018-08-24T14:17:21.154Z,21.90
2018-08-24T14:19:51.674Z,21.93
2018-08-24T14:22:23.173Z,22.17
2018-08-24T14:25:02.030Z,22.01
2018-08-24T14:27:37.367Z,22.14
2018-08-24T14:30:06.373Z,22.05
2018-08-24T14:32:42.262Z,22.19
2018-08-24T14:35:11.865Z,22.37
2018-08-24T14:37:42.356Z,22.28
2018-08-24T14:40:15.563Z,22.02
2018-08-24T14:42:43.804Z,21.78
2018-08-24T14:45:17.411Z,21.81
2018-08-24T14:48:09.376Z,21.58
2018-08-24T14:53:31.394Z,21.64
2018-08-24T14:56:01.195Z,21.69
2018-08-24T14:58:49.843Z,21.73
2018-08-24T15:01:35.661Z,21.71
2018-08-24T15:04:10.422Z,21.92
2018-08-24T20:06:35.731Z,17.00
2018-08-24T20:09:12.586Z,17.01
2018-08-24T20:11:40.805Z,16.94
2018-08-24T20:14:08.962Z,16.88
2018-08-24T20:16:42.453Z,16.81
2018-08-24T20:19:10.522Z,16.73
2018-08-24T20:21:38.633Z,16.64
2018-08-24T20:24:06.985Z,16.67
2018-08-24T20:26:35.076Z,16.58
2018-08-24T20:29:03.145Z,16.55
2018-08-24T20:31:31.504Z,16.56
2018-08-24T20:33:59.707Z,16.56
2018-08-24T20:36:27.775Z,16.58
2018-08-24T20:38:55.852Z,16.55
2018-08-24T20:41:23.903Z,16.51
2018-08-24T20:43:52.887Z,16.50
2018-08-24T20:46:21.025Z,16.43
2018-08-24T20:48:49.362Z,16.37
2018-08-24T20:51:26.624Z,16.31
2018-08-24T20:53:54.823Z,16.33
2018-08-24T20:56:23.047Z,16.36
2018-08-24T20:58:51.170Z,16.31
2018-08-24T21:01:19.524Z,16.28
2018-08-24T21:03:47.733Z,16.22
2018-08-24T21:06:16.067Z,16.20
2018-08-24T21:08:44.250Z,16.21
2018-08-24T21:11:12.289Z,16.19
2018-08-24T21:13:40.588Z,16.17
2018-08-24T21:16:08.662Z,16.16
2018-08-24T21:18:36.946Z,16.14
2018-08-24T21:21:05.164Z,16.22
2018-08-24T21:23:33.390Z,16.23
2018-08-24T21:26:01.594Z,16.28
2018-08-24T21:28:29.730Z,16.20
2018-08-24T21:30:57.993Z,16.18
2018-08-24T21:33:26.086Z,16.17
2018-08-24T21:35:54.187Z,16.16
2018-08-24T21:38:22.207Z,16.14
2018-08-24T21:40:50.328Z,16.13
2018-08-24T21:43:18.450Z,16.10
2018-08-24T21:45:46.588Z,16.03
2018-08-24T21:48:14.608Z,16.06
2018-08-24T21:50:42.747Z,16.06
2018-08-24T21:53:10.837Z,16.03
2018-08-24T21:55:39.204Z,16.04
2018-08-24T21:58:07.409Z,16.06
2018-08-24T22:00:40.972Z,16.00
2018-08-24T22:03:09.916Z,15.97
2018-08-24T22:05:38.084Z,15.88
2018-08-24T22:08:06.342Z,15.81
2018-08-24T22:10:34.762Z,15.82
2018-08-24T22:13:02.906Z,15.75
2018-08-24T22:15:31.504Z,15.61
2018-08-24T22:17:59.527Z,15.60
2018-08-24T22:20:27.652Z,15.54
2018-08-24T22:22:55.713Z,15.52
2018-08-24T22:25:23.783Z,15.47
2018-08-24T22:27:51.971Z,15.48
2018-08-24T22:30:20.153Z,15.49
2018-08-24T22:32:48.362Z,15.47
2018-08-24T22:35:16.542Z,15.43
2018-08-24T22:37:44.612Z,15.35
2018-08-24T22:40:12.730Z,15.36
2018-08-24T22:42:42.731Z,15.29
2018-08-24T22:45:11.955Z,15.30
2018-08-24T22:47:39.951Z,15.27
2018-08-24T22:50:08.036Z,15.19
2018-08-24T22:52:36.014Z,15.06
2018-08-24T22:55:04.265Z,15.12
2018-08-24T22:57:32.235Z,15.21
2018-08-24T23:00:00.368Z,15.12
2018-08-24T23:02:28.438Z,15.18
2018-08-24T23:04:56.593Z,15.18
2018-08-24T23:07:24.773Z,15.10
2018-08-24T23:09:52.936Z,15.06
2018-08-24T23:12:21.976Z,15.05
2018-08-24T23:14:50.064Z,15.10
2018-08-24T23:17:18.164Z,15.04
2018-08-24T23:19:46.146Z,14.93
2018-08-24T23:22:14.155Z,14.90
2018-08-24T23:24:42.123Z,14.87
2018-08-24T23:27:10.138Z,14.77
2018-08-24T23:29:38.293Z,14.76
2018-08-24T23:32:06.488Z,14.74
2018-08-24T23:34:34.565Z,14.75
2018-08-24T23:37:02.762Z,14.76
2018-08-24T23:39:31.065Z,14.76
2018-08-24T23:41:59.087Z,14.74
2018-08-24T23:44:27.294Z,14.69
2018-08-24T23:46:55.375Z,14.69
2018-08-24T23:49:23.364Z,14.65
2018-08-24T23:51:51.349Z,14.61
2018-08-24T23:54:19.377Z,14.59
2018-08-24T23:56:47.455Z,14.64
2018-08-24T23:59:15.401Z,14.58
